Time;durP1;ratioP1;P1;durP2;ratioP2;P2;SDS_P1;SDS_P2;PMS_P1;PMS_P2;Temp;Humidity;BMP_temperature;BMP_pressure;BME280_temperature;BME280_humidity;BME280_pressure;Samples;Min_cycle;Max_cycle;Signal;HPM_P1;HPM_P2
2022/01/23 00:01:40;;;;;;;10.95;5.63;;;5.70;99.90;;;;;;4977533;28;20774;-46
2022/01/23 00:04:06;;;;;;;11.80;5.32;;;5.70;99.90;;;;;;4988688;28;20651;-48
2022/01/23 00:06:31;;;;;;;12.07;6.05;;;5.70;99.90;;;;;;4982734;28;20137;-47
2022/01/23 00:08:57;;;;;;;17.98;6.60;;;5.70;99.90;;;;;;4988985;28;20619;-47
2022/01/23 00:11:26;;;;;;;15.98;5.93;;;5.70;99.90;;;;;;4998440;28;20630;-48
2022/01/23 00:19:13;;;;;;;11.77;6.18;;;5.70;99.90;;;;;;4997687;28;20153;-46
2022/01/23 00:21:40;;;;;;;14.48;6.22;;;5.60;99.90;;;;;;5000465;28;20061;-47
2022/01/23 00:32:05;;;;;;;11.68;6.78;;;5.60;99.90;;;;;;5005777;28;20041;-50
2022/01/23 00:34:31;;;;;;;10.32;6.80;;;5.60;99.90;;;;;;4988770;28;20061;-46
2022/01/23 00:36:56;;;;;;;13.73;6.35;;;5.60;99.90;;;;;;4992280;28;20061;-49
2022/01/23 00:39:22;;;;;;;9.93;6.55;;;5.60;99.90;;;;;;5017111;28;20064;-46
2022/01/23 00:41:48;;;;;;;13.73;6.63;;;5.60;99.90;;;;;;5022333;28;20057;-47
2022/01/23 00:44:13;;;;;;;10.75;6.68;;;5.60;99.90;;;;;;5021779;28;20065;-49
2022/01/23 00:46:48;;;;;;;16.90;7.53;;;5.60;99.90;;;;;;5023058;28;20049;-46
2022/01/23 00:49:24;;;;;;;17.02;7.00;;;5.60;99.90;;;;;;5024152;28;20049;-47
2022/01/23 00:51:51;;;;;;;9.10;5.78;;;5.60;99.90;;;;;;5022998;28;20542;-46
2022/01/23 00:54:16;;;;;;;13.27;6.30;;;5.60;99.90;;;;;;5022236;28;20042;-47
2022/01/23 00:56:42;;;;;;;11.15;6.68;;;5.60;99.90;;;;;;5023042;28;20045;-48
2022/01/23 00:59:08;;;;;;;17.67;7.10;;;5.50;99.90;;;;;;5021220;28;20565;-47
2022/01/23 01:01:34;;;;;;;17.45;7.60;;;5.60;99.90;;;;;;5023497;28;20048;-47
2022/01/23 01:04:00;;;;;;;11.40;6.85;;;5.60;99.90;;;;;;5023364;28;20053;-46
2022/01/23 01:06:26;;;;;;;10.55;6.88;;;5.60;99.90;;;;;;5023085;28;20547;-46
2022/01/23 01:08:55;;;;;;;12.88;6.43;;;5.60;99.90;;;;;;5031820;28;20107;-46
2022/01/23 01:31:07;;;;;;;10.77;5.90;;;5.60;99.90;;;;;;5039010;28;20060;-46
2022/01/23 01:33:23;;;;;;;10.70;6.05;;;5.60;99.90;;;;;;5021337;28;20163;-46
2022/01/23 01:35:56;;;;;;;11.45;5.82;;;5.50;99.90;;;;;;5045897;28;20056;-45
2022/01/23 01:38:23;;;;;;;12.15;5.88;;;5.60;99.90;;;;;;5042618;28;20044;-46
2022/01/23 01:40:49;;;;;;;12.48;6.40;;;5.50;99.90;;;;;;5042087;28;20201;-46
2022/01/23 01:43:15;;;;;;;11.57;6.15;;;5.50;99.90;;;;;;5041094;28;20484;-46
2022/01/23 01:45:42;;;;;;;15.48;6.55;;;5.50;99.90;;;;;;5041836;28;20048;-46
2022/01/23 01:48:09;;;;;;;10.88;6.05;;;5.50;99.90;;;;;;5043433;28;20411;-46
2022/01/23 01:50:35;;;;;;;9.23;5.22;;;5.50;99.90;;;;;;5041682;28;20502;-48
2022/01/23 01:53:01;;;;;;;12.35;5.93;;;5.50;99.90;;;;;;5043211;28;20045;-48
2022/01/23 01:55:35;;;;;;;10.80;5.72;;;5.50;99.90;;;;;;5042036;28;20044;-46
2022/01/23 01:58:03;;;;;;;11.98;4.95;;;5.50;99.90;;;;;;5045309;28;20123;-49
2022/01/23 02:08:29;;;;;;;8.73;5.35;;;5.50;99.90;;;;;;5042821;28;19974;-47
2022/01/23 02:11:05;;;;;;;9.93;4.35;;;5.50;99.90;;;;;;5023993;28;20140;-47
2022/01/23 02:13:36;;;;;;;7.57;4.78;;;5.50;99.90;;;;;;5024233;28;20062;-47
2022/01/23 02:54:27;;;;;;;8.80;3.97;;;5.40;99.90;;;;;;5041356;28;20041;-46
2022/01/23 02:56:56;;;;;;;6.03;3.78;;;5.40;99.90;;;;;;5044742;28;20055;-47
2022/01/23 02:59:28;;;;;;;5.57;3.63;;;5.40;99.90;;;;;;5021944;28;20157;-46
2022/01/23 03:04:36;;;;;;;8.50;4.68;;;5.40;99.90;;;;;;5041064;28;20053;-47
2022/01/23 03:07:31;;;;;;;7.05;4.00;;;5.40;99.90;;;;;;5034526;28;20056;-46
2022/01/23 03:10:05;;;;;;;8.57;4.35;;;5.40;99.90;;;;;;5035894;28;20057;-47
2022/01/23 03:29:50;;;;;;;6.60;4.35;;;5.40;99.90;;;;;;5041151;28;20046;-46
2022/01/23 03:32:19;;;;;;;10.25;5.38;;;5.40;99.90;;;;;;5029571;28;20132;-46
2022/01/23 03:34:28;;;;;;;10.18;4.68;;;5.40;99.90;;;;;;5033372;28;20135;-47
2022/01/23 03:36:55;;;;;;;10.85;4.88;;;5.40;99.90;;;;;;5040655;28;20052;-48
2022/01/23 03:39:21;;;;;;;14.05;5.22;;;5.40;99.90;;;;;;5040012;28;20107;-46
2022/01/23 03:41:47;;;;;;;11.52;5.32;;;5.30;99.90;;;;;;5040005;28;20050;-47
2022/01/23 03:44:15;;;;;;;11.50;5.07;;;5.40;99.90;;;;;;5039774;28;20053;-47
2022/01/23 03:49:32;;;;;;;8.32;4.78;;;5.30;99.90;;;;;;5040303;28;20067;-47
2022/01/23 03:52:03;;;;;;;12.27;4.95;;;5.30;99.90;;;;;;5039975;28;20049;-46
2022/01/23 03:54:30;;;;;;;15.75;5.15;;;5.30;99.90;;;;;;5040843;28;20504;-46
2022/01/23 03:56:58;;;;;;;12.82;5.28;;;5.30;99.90;;;;;;5042835;28;20369;-46
2022/01/23 03:59:24;;;;;;;11.57;5.15;;;5.30;99.90;;;;;;5043794;28;20052;-46
2022/01/23 04:01:50;;;;;;;14.07;5.30;;;5.30;99.90;;;;;;5025463;28;20048;-47
2022/01/23 04:07:00;;;;;;;14.50;5.47;;;5.20;99.90;;;;;;5032007;28;20443;-47
2022/01/23 04:09:26;;;;;;;14.38;5.25;;;5.20;99.90;;;;;;5043790;28;20115;-46
2022/01/23 04:11:53;;;;;;;13.80;5.32;;;5.30;99.90;;;;;;5044356;28;20084;-46
2022/01/23 04:14:22;;;;;;;16.63;5.07;;;5.20;99.90;;;;;;5052679;28;20570;-46
2022/01/23 05:00:20;;;;;;;17.13;6.95;;;5.10;99.90;;;;;;4955635;28;20569;-47
2022/01/23 05:05:34;;;;;;;14.50;7.18;;;5.00;99.90;;;;;;4953778;28;20569;-47
2022/01/23 05:08:04;;;;;;;17.58;5.97;;;5.10;99.90;;;;;;5032915;28;20064;-46
2022/01/23 05:10:30;;;;;;;17.50;5.70;;;5.00;99.90;;;;;;5042946;28;20582;-47
2022/01/23 05:12:56;;;;;;;11.80;5.35;;;5.00;99.90;;;;;;5043243;28;20084;-48
2022/01/23 05:15:22;;;;;;;11.77;5.47;;;4.90;99.90;;;;;;5050982;28;20045;-47
2022/01/23 05:17:48;;;;;;;12.88;6.00;;;4.90;99.90;;;;;;5042944;28;20056;-46
2022/01/23 05:20:16;;;;;;;13.73;6.28;;;5.00;99.90;;;;;;5043189;28;20044;-46
2022/01/23 05:22:53;;;;;;;14.75;6.53;;;4.90;99.90;;;;;;5042309;28;20049;-47
2022/01/23 05:25:23;;;;;;;13.85;6.55;;;5.00;99.90;;;;;;5050065;28;20044;-49
2022/01/23 05:27:53;;;;;;;13.65;6.47;;;4.90;99.90;;;;;;5038850;28;20341;-47
2022/01/23 05:30:21;;;;;;;13.43;6.80;;;4.90;99.90;;;;;;5039025;28;20052;-48
2022/01/23 05:32:47;;;;;;;10.32;5.45;;;5.00;99.90;;;;;;5043380;28;20203;-48
2022/01/23 05:35:14;;;;;;;10.20;5.50;;;4.90;99.90;;;;;;5047899;28;20237;-46
2022/01/23 05:37:40;;;;;;;12.05;5.60;;;4.90;99.90;;;;;;5045040;28;20053;-47
2022/01/23 05:40:10;;;;;;;9.80;5.90;;;5.00;99.90;;;;;;5046206;28;20841;-47
2022/01/23 05:42:36;;;;;;;11.02;5.70;;;4.90;99.90;;;;;;5042670;28;20128;-50
2022/01/23 05:45:02;;;;;;;7.93;4.90;;;4.90;99.90;;;;;;5042125;28;20063;-50
2022/01/23 05:47:31;;;;;;;12.63;5.70;;;4.90;99.90;;;;;;5042690;28;20075;-47
2022/01/23 05:49:57;;;;;;;9.23;5.38;;;4.90;99.90;;;;;;5042792;28;20134;-47
2022/01/23 05:52:23;;;;;;;10.95;5.45;;;4.90;99.90;;;;;;5042527;28;20160;-48
2022/01/23 05:54:49;;;;;;;13.57;5.57;;;4.80;99.90;;;;;;5042919;28;20045;-47
2022/01/23 05:57:15;;;;;;;13.57;6.05;;;4.90;99.90;;;;;;5027853;28;20060;-46
2022/01/23 05:59:40;;;;;;;12.15;6.22;;;4.80;99.90;;;;;;5024484;28;20056;-46
2022/01/23 06:02:07;;;;;;;13.57;6.75;;;4.80;99.90;;;;;;5041559;28;20045;-49
2022/01/23 06:04:33;;;;;;;14.00;6.60;;;4.80;99.90;;;;;;5023440;28;20057;-46
2022/01/23 06:06:59;;;;;;;17.92;6.95;;;4.80;99.90;;;;;;5041375;28;20048;-47
2022/01/23 06:09:26;;;;;;;15.70;6.22;;;4.80;99.90;;;;;;5041744;28;20049;-47
2022/01/23 06:11:52;;;;;;;17.27;6.45;;;4.70;99.90;;;;;;5022993;28;20383;-47
2022/01/23 06:14:19;;;;;;;17.67;6.55;;;4.70;99.90;;;;;;5048527;28;20600;-46
2022/01/23 06:16:45;;;;;;;10.65;5.85;;;4.80;99.90;;;;;;5041841;28;20040;-47
2022/01/23 06:19:11;;;;;;;8.02;4.78;;;4.80;99.90;;;;;;5042799;28;20675;-48
2022/01/23 06:21:36;;;;;;;8.02;5.13;;;4.80;99.90;;;;;;5041212;28;20045;-49
2022/01/23 06:24:24;;;;;;;9.40;5.00;;;4.70;99.90;;;;;;5019797;28;20060;-46
2022/01/23 06:26:55;;;;;;;10.60;4.57;;;4.80;99.90;;;;;;5029372;28;20045;-47
2022/01/23 06:29:23;;;;;;;12.80;5.88;;;4.80;99.90;;;;;;5038644;28;20092;-47
2022/01/23 06:31:50;;;;;;;9.20;6.22;;;4.80;99.90;;;;;;5042238;28;20376;-46
2022/01/23 06:34:17;;;;;;;12.10;6.20;;;4.90;99.90;;;;;;5027088;28;20048;-46
2022/01/23 06:36:44;;;;;;;13.48;7.03;;;4.90;99.90;;;;;;5042634;28;20056;-48
2022/01/23 06:39:12;;;;;;;12.38;6.38;;;4.90;99.90;;;;;;5038562;28;20057;-47
2022/01/23 06:41:39;;;;;;;10.43;6.43;;;4.90;99.90;;;;;;5022532;28;20460;-46
2022/01/23 06:44:05;;;;;;;10.73;6.47;;;4.90;99.90;;;;;;5040945;28;20055;-46
2022/01/23 06:46:31;;;;;;;14.57;6.72;;;4.90;99.90;;;;;;5041752;28;20049;-46
2022/01/23 06:48:58;;;;;;;12.93;6.00;;;4.80;99.90;;;;;;5045171;28;20045;-50
2022/01/23 06:51:24;;;;;;;10.82;6.90;;;4.90;99.90;;;;;;5044009;28;20049;-47
2022/01/23 06:53:49;;;;;;;8.93;5.82;;;4.90;99.90;;;;;;5042738;28;20036;-47
2022/01/23 06:56:15;;;;;;;8.35;5.68;;;5.00;99.90;;;;;;5046357;28;20044;-47
2022/01/23 06:58:41;;;;;;;15.05;7.78;;;4.90;99.90;;;;;;5041803;28;20052;-47
2022/01/23 07:01:10;;;;;;;9.20;6.40;;;4.90;99.90;;;;;;5042043;28;20606;-48
2022/01/23 07:03:37;;;;;;;10.25;6.43;;;4.90;99.90;;;;;;5040058;28;20047;-47
2022/01/23 07:06:04;;;;;;;10.38;5.68;;;4.90;99.90;;;;;;5040393;28;20543;-47
2022/01/23 07:08:30;;;;;;;11.68;7.15;;;4.90;99.90;;;;;;5040451;28;20056;-47
2022/01/23 07:10:56;;;;;;;10.10;5.95;;;4.90;99.90;;;;;;5041267;28;20056;-47
2022/01/23 07:13:22;;;;;;;11.98;6.90;;;4.90;99.90;;;;;;5040720;28;20064;-46
2022/01/23 07:15:48;;;;;;;10.38;6.80;;;5.00;99.90;;;;;;5041365;28;20045;-46
2022/01/23 07:18:24;;;;;;;10.43;6.55;;;4.90;99.90;;;;;;5041776;28;20056;-47
2022/01/23 07:20:50;;;;;;;12.07;7.30;;;5.00;99.90;;;;;;5042094;28;20045;-48
2022/01/23 07:23:21;;;;;;;14.82;7.30;;;5.00;99.90;;;;;;5041154;28;20037;-47
2022/01/23 07:25:47;;;;;;;11.63;7.13;;;5.00;99.90;;;;;;5044556;28;20121;-47
2022/01/23 07:28:16;;;;;;;8.35;6.07;;;4.90;99.90;;;;;;5039168;28;20138;-46
2022/01/23 07:33:11;;;;;;;8.63;5.03;;;5.00;99.90;;;;;;5040944;28;20057;-47
2022/01/23 07:35:37;;;;;;;9.48;5.55;;;5.00;99.90;;;;;;5039725;28;20487;-47
2022/01/23 07:38:03;;;;;;;7.05;5.32;;;5.00;99.90;;;;;;5041634;28;20142;-47
2022/01/23 07:40:29;;;;;;;7.35;5.28;;;5.00;99.90;;;;;;5041244;28;20499;-48
2022/01/23 07:42:54;;;;;;;10.48;6.20;;;5.00;99.90;;;;;;5023015;28;20052;-48
2022/01/23 07:45:20;;;;;;;11.50;7.32;;;5.10;99.90;;;;;;5039594;28;20057;-48
2022/01/23 07:47:46;;;;;;;9.77;6.03;;;5.00;99.90;;;;;;5022246;28;20519;-46
2022/01/23 07:50:13;;;;;;;10.52;5.75;;;5.10;99.90;;;;;;5041016;28;20060;-47
2022/01/23 07:52:39;;;;;;;13.55;6.95;;;5.00;99.90;;;;;;5041839;28;20063;-46
2022/01/23 07:55:08;;;;;;;10.30;6.03;;;5.10;99.90;;;;;;5043318;28;20054;-46
2022/01/23 07:57:40;;;;;;;9.38;6.13;;;5.10;99.90;;;;;;5041976;28;20530;-49
2022/01/23 08:00:08;;;;;;;8.27;5.53;;;5.10;99.90;;;;;;5044767;28;20056;-49
2022/01/23 08:02:34;;;;;;;9.95;5.72;;;5.00;99.90;;;;;;5042044;28;20113;-47
2022/01/23 08:05:00;;;;;;;8.75;5.45;;;5.00;99.90;;;;;;5040868;28;20376;-50
2022/01/23 08:10:08;;;;;;;9.63;5.35;;;5.10;99.90;;;;;;5039943;28;20429;-46
2022/01/23 08:12:35;;;;;;;7.95;5.45;;;5.10;99.90;;;;;;5040642;28;20124;-46
2022/01/23 08:15:04;;;;;;;10.90;6.80;;;5.10;99.90;;;;;;5048072;28;20599;-49
2022/01/23 08:17:31;;;;;;;9.48;5.40;;;5.10;99.90;;;;;;5040685;28;20083;-46
2022/01/23 08:20:03;;;;;;;10.10;5.45;;;5.10;99.90;;;;;;5022389;28;20060;-47
2022/01/23 08:22:30;;;;;;;8.88;5.00;;;5.10;99.90;;;;;;5040526;28;20045;-48
2022/01/23 08:24:57;;;;;;;7.75;4.90;;;5.10;99.90;;;;;;5040929;28;20469;-47
2022/01/23 08:27:24;;;;;;;6.68;4.78;;;5.20;99.90;;;;;;5043945;28;20052;-46
2022/01/23 08:29:50;;;;;;;8.25;5.22;;;5.20;99.90;;;;;;5040729;28;20045;-47
2022/01/23 08:32:16;;;;;;;7.78;5.72;;;5.20;99.90;;;;;;5009984;28;20186;-46
2022/01/23 08:34:42;;;;;;;8.70;5.35;;;5.20;99.90;;;;;;5044542;28;20417;-47
2022/01/23 08:37:09;;;;;;;7.18;5.70;;;5.20;99.90;;;;;;5040776;28;20510;-46
2022/01/23 08:39:36;;;;;;;11.40;7.10;;;5.20;99.90;;;;;;5040465;28;20041;-47
2022/01/23 08:42:04;;;;;;;8.20;5.78;;;5.20;99.90;;;;;;5039442;28;20100;-47
2022/01/23 08:44:31;;;;;;;9.60;6.03;;;5.20;99.90;;;;;;5033986;28;20052;-46
2022/01/23 08:46:56;;;;;;;8.35;5.30;;;5.20;99.90;;;;;;5023983;28;20052;-47
2022/01/23 08:49:25;;;;;;;10.05;6.60;;;5.30;99.90;;;;;;5042614;28;20102;-46
2022/01/23 08:51:52;;;;;;;10.07;5.55;;;5.40;99.90;;;;;;5043014;28;20539;-47
2022/01/23 08:54:18;;;;;;;7.78;5.38;;;5.30;99.90;;;;;;5045556;28;20040;-46
2022/01/23 08:56:49;;;;;;;8.50;5.20;;;5.40;99.90;;;;;;5048219;28;20116;-46
2022/01/23 08:59:15;;;;;;;8.05;5.65;;;5.40;99.90;;;;;;5044172;28;20435;-48
2022/01/23 09:01:40;;;;;;;11.23;5.93;;;5.40;99.90;;;;;;5043646;28;20076;-46
2022/01/23 09:04:07;;;;;;;11.88;5.97;;;5.40;99.90;;;;;;5043337;28;20128;-46
2022/01/23 09:06:34;;;;;;;9.32;5.80;;;5.40;99.90;;;;;;5043900;28;20049;-46
2022/01/23 09:09:00;;;;;;;8.98;5.65;;;5.50;99.90;;;;;;5034926;28;20531;-46
2022/01/23 09:14:06;;;;;;;8.27;5.35;;;5.50;99.90;;;;;;5050305;28;20537;-49
2022/01/23 09:16:38;;;;;;;8.23;5.53;;;5.60;99.90;;;;;;5045292;28;20102;-47
2022/01/23 09:19:04;;;;;;;7.80;5.63;;;5.60;99.90;;;;;;5044194;28;20045;-47
2022/01/23 09:21:31;;;;;;;11.15;5.18;;;5.70;99.90;;;;;;5043678;28;20094;-46
2022/01/23 09:23:57;;;;;;;10.40;5.80;;;5.60;99.90;;;;;;5025066;28;20052;-47
2022/01/23 09:26:23;;;;;;;10.68;5.50;;;5.70;99.90;;;;;;5051853;28;20041;-47
2022/01/23 09:28:53;;;;;;;7.95;4.80;;;5.80;99.90;;;;;;5040753;28;20053;-47
2022/01/23 09:31:48;;;;;;;11.20;5.05;;;5.70;99.90;;;;;;5040080;28;20041;-46
2022/01/23 09:34:18;;;;;;;9.25;5.60;;;5.70;99.90;;;;;;5045064;28;20052;-46
2022/01/23 09:36:43;;;;;;;8.13;5.00;;;5.70;99.90;;;;;;5043370;28;20045;-48
2022/01/23 09:39:15;;;;;;;8.73;5.55;;;5.70;99.90;;;;;;5041714;28;20487;-46
2022/01/23 09:41:46;;;;;;;7.93;5.70;;;5.80;99.90;;;;;;5042285;28;20119;-47
2022/01/23 09:44:15;;;;;;;9.07;6.28;;;5.70;99.90;;;;;;5042301;28;20048;-47
2022/01/23 09:46:43;;;;;;;11.88;6.75;;;5.80;99.90;;;;;;5042989;28;20056;-47
2022/01/23 09:49:10;;;;;;;9.52;5.72;;;5.80;99.90;;;;;;5039714;28;20040;-47
2022/01/23 09:51:41;;;;;;;10.45;6.00;;;5.90;99.90;;;;;;5042119;28;20052;-47
2022/01/23 09:54:12;;;;;;;9.95;6.03;;;5.80;99.90;;;;;;5036977;28;20045;-46
2022/01/23 09:56:40;;;;;;;10.13;5.95;;;5.80;99.90;;;;;;5040526;28;20049;-48
2022/01/23 09:59:09;;;;;;;9.27;5.85;;;5.90;99.90;;;;;;5038650;28;20049;-47
2022/01/23 10:01:36;;;;;;;12.27;7.07;;;5.90;99.90;;;;;;5039635;28;20044;-47
2022/01/23 10:04:02;;;;;;;10.77;5.28;;;6.10;99.90;;;;;;5020253;28;20117;-48
2022/01/23 10:06:27;;;;;;;11.38;6.30;;;6.10;99.90;;;;;;5042380;28;20044;-47
2022/01/23 10:08:53;;;;;;;12.82;6.53;;;6.10;99.90;;;;;;5041483;28;20052;-49
2022/01/23 10:11:20;;;;;;;10.82;6.18;;;6.00;99.90;;;;;;5042310;28;20538;-47
2022/01/23 10:13:45;;;;;;;11.15;6.68;;;6.10;99.90;;;;;;5047113;28;20117;-47
2022/01/23 10:16:11;;;;;;;12.48;8.05;;;6.10;99.90;;;;;;5042011;28;20496;-47
2022/01/23 10:18:38;;;;;;;13.35;8.27;;;6.10;99.90;;;;;;5043177;28;20085;-49
2022/01/23 10:21:04;;;;;;;17.48;8.80;;;6.10;99.90;;;;;;5043823;28;20048;-48
2022/01/23 10:23:30;;;;;;;15.45;9.20;;;6.10;99.90;;;;;;5045398;28;20044;-47
2022/01/23 10:26:04;;;;;;;15.30;9.35;;;6.10;99.90;;;;;;5040510;28;20085;-50
2022/01/23 10:28:34;;;;;;;16.67;10.32;;;6.10;99.90;;;;;;5037877;28;20037;-48
2022/01/23 10:31:05;;;;;;;19.17;10.32;;;6.10;99.90;;;;;;5031441;28;20053;-46
2022/01/23 10:33:36;;;;;;;20.20;10.73;;;6.10;99.90;;;;;;5040643;28;20431;-46
2022/01/23 10:36:08;;;;;;;20.10;11.30;;;6.10;99.90;;;;;;5032647;28;20395;-49
2022/01/23 10:38:43;;;;;;;19.63;10.65;;;6.10;99.90;;;;;;5042197;28;20049;-48
2022/01/23 10:50:01;;;;;;;22.30;10.93;;;6.20;99.90;;;;;;4959643;28;20093;-47
2022/01/23 10:52:28;;;;;;;18.88;9.50;;;6.30;99.90;;;;;;4959203;28;20061;-47
2022/01/23 10:54:54;;;;;;;18.23;10.73;;;6.40;99.90;;;;;;4960596;28;20054;-46
2022/01/23 10:57:19;;;;;;;22.25;11.18;;;6.40;99.90;;;;;;4962098;28;20047;-50
2022/01/23 10:59:48;;;;;;;15.23;9.25;;;6.40;99.90;;;;;;4960110;28;20130;-47
2022/01/23 11:02:21;;;;;;;19.30;9.68;;;6.50;99.90;;;;;;4959287;28;20577;-47
2022/01/23 11:04:52;;;;;;;;;;;6.40;99.90;;;;;;4959639;28;20461;-49
2022/01/23 11:07:19;;;;;;;16.40;9.43;;;6.40;99.90;;;;;;4952015;28;19940;-47
2022/01/23 11:09:45;;;;;;;17.25;8.82;;;6.50;99.90;;;;;;4959222;28;20079;-47
2022/01/23 11:17:52;;;;;;;17.10;9.70;;;6.70;99.90;;;;;;4959452;28;20718;-46
2022/01/23 11:20:36;;;;;;;14.32;8.55;;;6.70;99.90;;;;;;4941109;29;20408;-47
2022/01/23 11:23:12;;;;;;;;;;;6.70;99.90;;;;;;4959833;28;20533;-47
2022/01/23 11:25:39;;;;;;;14.10;8.40;;;6.80;99.90;;;;;;4972649;28;19932;-50
2022/01/23 11:28:05;;;;;;;13.30;7.57;;;6.80;99.90;;;;;;5018783;28;20049;-46
2022/01/23 11:30:44;;;;;;;13.35;7.32;;;6.90;99.90;;;;;;5011460;28;20069;-47
2022/01/23 11:33:18;;;;;;;9.80;6.75;;;6.90;99.90;;;;;;5006601;28;20042;-50
2022/01/23 11:35:46;;;;;;;12.35;6.72;;;6.90;99.90;;;;;;5009041;28;20042;-51
2022/01/23 11:38:15;;;;;;;9.25;6.10;;;7.00;99.90;;;;;;5012851;28;20085;-53
2022/01/23 11:54:43;;;;;;;8.20;5.85;;;6.90;99.90;;;;;;5018684;28;20482;-49
2022/01/23 11:57:34;;;;;;;9.98;7.43;;;6.90;99.90;;;;;;5019205;28;20041;-46
2022/01/23 12:00:21;;;;;;;12.43;9.13;;;7.00;99.90;;;;;;5020146;28;20124;-47
2022/01/23 12:03:13;;;;;;;10.40;5.57;;;7.00;99.90;;;;;;4977954;28;20050;-47
2022/01/23 12:05:45;;;;;;;10.32;8.05;;;7.00;99.90;;;;;;4962185;28;20042;-46
2022/01/23 12:08:13;;;;;;;9.38;6.18;;;7.10;99.90;;;;;;4978329;28;20057;-46
2022/01/23 12:11:04;;;;;;;8.70;5.90;;;7.10;99.90;;;;;;4978071;28;20066;-47
2022/01/23 12:16:25;;;;;;;8.48;5.20;;;7.10;99.90;;;;;;4974624;28;20046;-47
2022/01/23 12:19:12;;;;;;;7.47;4.90;;;7.20;99.90;;;;;;4980593;28;20085;-47
2022/01/23 12:21:38;;;;;;;6.85;4.60;;;7.20;99.90;;;;;;4981435;28;20657;-47
2022/01/23 12:24:05;;;;;;;8.20;5.43;;;7.20;99.90;;;;;;4980256;28;20046;-47
2022/01/23 12:26:32;;;;;;;7.28;5.55;;;7.20;99.90;;;;;;4984822;28;20084;-49
2022/01/23 12:29:23;;;;;;;9.20;6.90;;;7.20;99.90;;;;;;4980502;28;20051;-47
2022/01/23 12:32:09;;;;;;;13.30;10.07;;;7.20;99.90;;;;;;4981670;28;20133;-49
2022/01/23 12:34:49;;;;;;;8.00;6.28;;;7.20;99.90;;;;;;4965358;28;20540;-48
2022/01/23 12:37:15;;;;;;;27.40;24.27;;;7.20;99.90;;;;;;4977417;28;20181;-47
2022/01/23 13:18:51;;;;;;;9.35;6.40;;;7.20;99.90;;;;;;5042672;28;20495;-46
2022/01/23 13:32:07;;;;;;;15.00;9.98;;;7.20;99.90;;;;;;5042693;28;20083;-48
2022/01/23 13:34:37;;;;;;;10.57;6.88;;;7.20;99.90;;;;;;5044587;28;20041;-47
2022/01/23 13:37:11;;;;;;;11.00;6.53;;;7.20;99.90;;;;;;5042325;28;20729;-48
2022/01/23 13:39:53;;;;;;;10.05;6.50;;;7.20;99.90;;;;;;5042933;28;20123;-47
2022/01/23 13:53:35;;;;;;;8.43;6.55;;;7.20;99.90;;;;;;4950500;28;20061;-47
2022/01/23 13:58:53;;;;;;;10.20;5.97;;;7.20;99.90;;;;;;4956756;28;20058;-47
2022/01/23 14:04:06;;;;;;;10.40;7.15;;;7.10;99.90;;;;;;4904037;29;20052;-47
2022/01/23 14:06:32;;;;;;;10.50;6.40;;;7.10;99.90;;;;;;4899752;29;20055;-49
2022/01/23 14:09:07;;;;;;;11.48;5.95;;;7.20;99.90;;;;;;4891898;29;20116;-49
2022/01/23 14:11:34;;;;;;;9.70;5.55;;;7.10;99.90;;;;;;4903894;29;20074;-47
2022/01/23 14:14:13;;;;;;;7.90;5.40;;;7.10;99.90;;;;;;4910422;29;20087;-48
2022/01/23 14:16:39;;;;;;;10.65;5.80;;;7.10;99.90;;;;;;4883053;29;20185;-49
2022/01/23 14:19:20;;;;;;;9.40;5.82;;;7.10;99.90;;;;;;4897645;29;20063;-47
2022/01/23 14:21:59;;;;;;;12.43;8.57;;;7.10;99.90;;;;;;4901212;29;20067;-47
2022/01/23 14:24:36;;;;;;;9.82;5.57;;;7.00;99.90;;;;;;4926031;28;20057;-46
2022/01/23 14:27:11;;;;;;;14.77;9.18;;;7.10;99.90;;;;;;4958441;28;20094;-47
2022/01/23 14:29:51;;;;;;;9.25;5.90;;;7.00;99.90;;;;;;4956515;28;20058;-46
2022/01/23 14:32:24;;;;;;;12.15;6.35;;;7.00;99.90;;;;;;4953854;28;20375;-47
2022/01/23 14:34:51;;;;;;;9.60;6.40;;;7.00;99.90;;;;;;4945639;28;20093;-51
2022/01/23 14:37:25;;;;;;;10.27;7.97;;;7.00;99.90;;;;;;4957356;28;20528;-48
2022/01/23 14:39:51;;;;;;;8.23;5.70;;;7.00;99.90;;;;;;4957394;28;20054;-46
2022/01/23 14:42:18;;;;;;;11.57;7.43;;;6.90;99.90;;;;;;5011729;28;20066;-47
2022/01/23 14:44:45;;;;;;;10.05;7.72;;;6.90;99.90;;;;;;5034309;28;20131;-48
2022/01/23 14:47:12;;;;;;;9.32;7.38;;;6.90;99.90;;;;;;5019861;28;20658;-49
2022/01/23 14:49:41;;;;;;;10.63;6.00;;;6.90;99.90;;;;;;5030594;28;20033;-51
2022/01/23 14:52:10;;;;;;;10.15;6.80;;;6.90;99.90;;;;;;5031066;28;20374;-49
2022/01/23 14:54:36;;;;;;;8.57;5.55;;;6.90;99.90;;;;;;5030970;28;20050;-48
2022/01/23 14:57:05;;;;;;;8.43;5.47;;;6.80;99.90;;;;;;5036076;28;20478;-46
2022/01/23 14:59:32;;;;;;;10.02;6.28;;;6.80;99.90;;;;;;5032365;28;20095;-51
2022/01/23 15:01:59;;;;;;;10.73;6.50;;;6.80;99.90;;;;;;5029862;28;20049;-50
2022/01/23 15:04:25;;;;;;;8.88;6.05;;;6.80;99.90;;;;;;5037080;28;20091;-47
2022/01/23 15:06:52;;;;;;;10.73;6.40;;;6.80;99.90;;;;;;5015782;28;20060;-48
2022/01/23 15:09:19;;;;;;;9.85;6.88;;;6.80;99.90;;;;;;5041240;28;20561;-48
2022/01/23 15:11:46;;;;;;;9.32;6.07;;;6.80;99.90;;;;;;5041305;28;20406;-47
2022/01/23 15:14:13;;;;;;;9.68;7.25;;;6.80;99.90;;;;;;5048475;28;20054;-48
2022/01/23 15:16:40;;;;;;;9.43;7.63;;;6.70;99.90;;;;;;5005904;28;20084;-46
2022/01/23 15:19:08;;;;;;;9.93;8.43;;;6.70;99.90;;;;;;5041931;28;20064;-47
2022/01/23 15:21:34;;;;;;;10.35;7.95;;;6.70;99.90;;;;;;5025678;28;20071;-50
2022/01/23 15:24:00;;;;;;;11.82;8.00;;;6.70;99.90;;;;;;5039673;28;20079;-49
2022/01/23 15:26:29;;;;;;;11.80;7.10;;;6.70;99.90;;;;;;5043083;28;20072;-46
2022/01/23 15:28:55;;;;;;;11.73;8.30;;;6.60;99.90;;;;;;5039833;28;20125;-50
2022/01/23 15:31:24;;;;;;;9.30;7.38;;;6.60;99.90;;;;;;5039679;28;20561;-46
2022/01/23 15:33:50;;;;;;;22.55;13.07;;;6.60;99.90;;;;;;5036838;28;20097;-46
2022/01/23 15:36:16;;;;;;;12.88;9.20;;;6.60;99.90;;;;;;5040859;28;20083;-46
2022/01/23 15:38:44;;;;;;;14.82;9.82;;;6.60;99.90;;;;;;5040508;28;20102;-46
2022/01/23 15:41:11;;;;;;;16.75;8.77;;;6.60;99.90;;;;;;5040056;28;20045;-47
2022/01/23 15:43:37;;;;;;;11.02;7.25;;;6.60;99.90;;;;;;5040086;28;20049;-47
2022/01/23 15:46:04;;;;;;;9.40;6.95;;;6.60;99.90;;;;;;5040648;28;20049;-47
2022/01/23 15:48:30;;;;;;;12.85;6.68;;;6.50;99.90;;;;;;5042303;28;20122;-48
2022/01/23 15:51:00;;;;;;;11.38;7.07;;;6.60;99.90;;;;;;5041323;28;20053;-50
2022/01/23 15:53:26;;;;;;;10.35;6.78;;;6.50;99.90;;;;;;5044283;28;20080;-47
2022/01/23 15:55:52;;;;;;;9.98;7.05;;;6.50;99.90;;;;;;5027668;28;20056;-50
2022/01/23 15:58:19;;;;;;;11.20;7.32;;;6.50;99.90;;;;;;5030479;28;20048;-47
2022/01/23 16:00:45;;;;;;;10.07;7.18;;;6.50;99.90;;;;;;5028124;28;20073;-47
2022/01/23 16:03:10;;;;;;;16.40;8.40;;;6.40;99.90;;;;;;5030080;28;20475;-48
2022/01/23 16:05:36;;;;;;;12.93;8.80;;;6.40;99.90;;;;;;5027511;28;20492;-50
2022/01/23 16:08:02;;;;;;;15.88;10.27;;;6.40;99.90;;;;;;5037798;28;20056;-48
2022/01/23 16:10:28;;;;;;;15.45;10.90;;;6.40;99.90;;;;;;5032025;28;20076;-47
2022/01/23 16:12:54;;;;;;;15.90;11.70;;;6.40;99.90;;;;;;5028681;28;20057;-49
2022/01/23 16:15:23;;;;;;;17.10;12.05;;;6.40;99.90;;;;;;5027747;28;20053;-49
2022/01/23 16:17:49;;;;;;;13.73;9.90;;;6.40;99.90;;;;;;5030779;28;20092;-46
2022/01/23 16:20:16;;;;;;;15.13;10.38;;;6.30;99.90;;;;;;5029100;28;20083;-46
2022/01/23 16:22:46;;;;;;;13.95;9.63;;;6.30;99.90;;;;;;4995232;28;20053;-49
2022/01/23 16:25:14;;;;;;;13.10;9.13;;;6.30;99.90;;;;;;5045680;28;20122;-47
2022/01/23 16:27:40;;;;;;;13.60;9.10;;;6.30;99.90;;;;;;5021537;28;20063;-47
2022/01/23 16:30:08;;;;;;;12.80;9.48;;;6.30;99.90;;;;;;5040899;28;20044;-49
2022/01/23 16:32:34;;;;;;;14.90;9.50;;;6.30;99.90;;;;;;5042562;28;20059;-46
2022/01/23 16:35:00;;;;;;;12.60;9.55;;;6.30;99.90;;;;;;5046159;28;20407;-47
2022/01/23 16:37:26;;;;;;;17.98;12.40;;;6.30;99.90;;;;;;5043671;28;20250;-50
2022/01/23 16:39:52;;;;;;;13.60;10.30;;;6.30;99.90;;;;;;5043741;28;20045;-46
2022/01/23 16:42:18;;;;;;;13.25;8.52;;;6.30;99.90;;;;;;5043058;28;20563;-47
2022/01/23 16:44:44;;;;;;;15.35;10.68;;;6.30;99.90;;;;;;5044350;28;20060;-46
2022/01/23 16:47:12;;;;;;;13.75;8.93;;;6.20;99.90;;;;;;5043696;28;20080;-47
2022/01/23 16:49:38;;;;;;;14.00;10.00;;;6.20;99.90;;;;;;5044609;28;20055;-47
2022/01/23 16:52:05;;;;;;;16.42;10.82;;;6.20;99.90;;;;;;5043954;28;20118;-46
2022/01/23 16:54:31;;;;;;;16.55;10.57;;;6.20;99.90;;;;;;5045327;28;20087;-47
2022/01/23 16:56:57;;;;;;;16.40;10.80;;;6.20;99.90;;;;;;5044231;28;20494;-47
2022/01/23 16:59:23;;;;;;;13.95;10.95;;;6.20;99.90;;;;;;5043793;28;20438;-47
2022/01/23 17:01:51;;;;;;;15.00;10.25;;;6.20;99.90;;;;;;5042559;28;20056;-48
2022/01/23 17:04:17;;;;;;;13.95;10.05;;;6.20;99.90;;;;;;5042767;28;20348;-46
2022/01/23 17:06:43;;;;;;;14.88;10.35;;;6.20;99.90;;;;;;5044350;28;20067;-47
2022/01/23 17:09:09;;;;;;;16.98;10.07;;;6.20;99.90;;;;;;5043182;28;20353;-47
2022/01/23 17:11:35;;;;;;;13.60;10.75;;;6.20;99.90;;;;;;5041554;28;20080;-46
2022/01/23 17:14:02;;;;;;;13.80;10.25;;;6.20;99.90;;;;;;5043658;28;20059;-46